createdAt,value
2023-04-02T00:00:36.356Z,91.44
2023-04-02T00:06:02.011Z,91.48
2023-04-02T00:11:06.326Z,91.48
2023-04-02T00:16:13.807Z,91.11
2023-04-02T00:21:22.036Z,90.97
2023-04-02T00:26:43.684Z,91.23
2023-04-02T00:31:59.664Z,91.69
2023-04-02T00:37:03.971Z,92.08
2023-04-02T00:42:07.802Z,92.14
2023-04-02T00:47:25.596Z,92.39
2023-04-02T00:52:31.440Z,92.71
2023-04-02T00:57:35.343Z,92.63
2023-04-02T01:02:41.279Z,92.86
2023-04-02T01:08:08.282Z,92.52
2023-04-02T01:13:17.962Z,92.56
2023-04-02T01:18:57.298Z,92.49
2023-04-02T01:24:06.761Z,92.52
2023-04-02T01:29:19.573Z,92.62
2023-04-02T01:34:26.669Z,92.78
2023-04-02T01:40:08.788Z,92.86
2023-04-02T01:45:17.157Z,93.09
2023-04-02T01:50:34.188Z,92.93
2023-04-02T01:55:47.608Z,93.14
2023-04-02T02:00:57.222Z,93.37
2023-04-02T02:06:03.542Z,92.95
2023-04-02T02:11:09.294Z,92.57
2023-04-02T02:16:18.355Z,92.36
2023-04-02T02:22:11.579Z,92.47
2023-04-02T02:27:24.091Z,92.13
2023-04-02T02:32:33.604Z,91.91
2023-04-02T02:37:41.238Z,91.91
2023-04-02T02:42:52.090Z,91.84
2023-04-02T02:47:56.685Z,91.97
2023-04-02T02:53:04.738Z,91.95
2023-04-02T02:58:31.795Z,92.06
2023-04-02T03:03:53.941Z,92.25
2023-04-02T03:09:17.900Z,92.00
2023-04-02T03:14:44.894Z,91.58
2023-04-02T03:20:33.598Z,91.31
2023-04-02T03:25:44.691Z,91.46
2023-04-02T03:30:51.429Z,91.62
2023-04-02T03:36:03.358Z,91.96
2023-04-02T03:41:13.831Z,92.05
2023-04-02T03:46:24.918Z,91.99
2023-04-02T03:51:49.844Z,92.06
2023-04-02T03:56:54.832Z,92.30
2023-04-02T04:02:39.962Z,92.00
2023-04-02T04:07:44.314Z,92.11
2023-04-02T04:12:49.411Z,92.11
2023-04-02T04:18:14.210Z,92.08
2023-04-02T04:23:37.269Z,92.15
2023-04-02T04:28:49.914Z,92.34
2023-04-02T04:34:03.545Z,92.62
2023-04-02T04:39:31.570Z,93.08
2023-04-02T04:44:52.382Z,93.51
2023-04-02T04:50:06.100Z,93.54
2023-04-02T04:55:37.962Z,93.29
2023-04-02T05:00:45.153Z,93.39
2023-04-02T05:05:49.622Z,93.11
2023-04-02T05:10:57.955Z,92.90
2023-04-02T05:16:41.131Z,92.69
2023-04-02T05:22:31.043Z,92.48
2023-04-02T05:27:38.291Z,92.28
2023-04-02T05:32:48.288Z,92.28
2023-04-02T05:37:52.624Z,92.22
2023-04-02T05:42:58.174Z,91.43
2023-04-02T05:48:06.299Z,90.95
2023-04-02T05:53:47.307Z,90.55
2023-04-02T05:58:56.815Z,90.60
2023-04-02T06:04:26.563Z,90.61
2023-04-02T06:09:56.205Z,90.25
2023-04-02T06:15:00.736Z,89.09
2023-04-02T06:20:07.484Z,88.95
2023-04-02T06:25:33.777Z,88.77
2023-04-02T06:30:40.057Z,88.33
2023-04-02T06:35:47.413Z,87.65
2023-04-02T06:41:13.634Z,87.15
2023-04-02T06:46:33.096Z,87.11
2023-04-02T06:51:44.880Z,86.41
2023-04-02T06:56:53.980Z,86.65
2023-04-02T07:02:13.061Z,86.58
2023-04-02T07:07:18.342Z,86.04
2023-04-02T07:12:25.729Z,85.14
2023-04-02T07:17:30.777Z,84.77
2023-04-02T07:22:34.960Z,84.14
2023-04-02T07:27:39.959Z,84.00
2023-04-02T07:32:43.773Z,84.16
2023-04-02T07:37:47.546Z,84.01
2023-04-02T07:42:51.317Z,82.95
2023-04-02T07:47:55.243Z,83.15
2023-04-02T07:52:59.080Z,83.83
2023-04-02T07:58:03.460Z,83.94
2023-04-02T08:03:07.518Z,84.41
2023-04-02T08:08:11.522Z,83.90
2023-04-02T08:13:16.649Z,83.50
2023-04-02T08:18:24.082Z,83.19
2023-04-02T08:23:28.404Z,83.20
2023-04-02T08:28:32.293Z,82.59
2023-04-02T08:33:36.225Z,82.11
2023-04-02T08:38:40.675Z,81.95
2023-04-02T08:44:07.481Z,81.58
2023-04-02T08:49:29.930Z,81.28
2023-04-02T08:54:47.273Z,79.91
2023-04-02T09:00:01.719Z,79.24
2023-04-02T09:05:08.321Z,78.87
2023-04-02T09:10:19.915Z,78.73
2023-04-02T09:15:31.456Z,79.22
2023-04-02T09:20:35.091Z,79.30
2023-04-02T09:25:51.206Z,79.16
2023-04-02T09:31:16.470Z,79.05
2023-04-02T09:36:38.688Z,78.94
2023-04-02T09:41:43.782Z,79.18
2023-04-02T09:47:00.734Z,79.17
2023-04-02T09:52:30.368Z,79.28
2023-04-02T09:57:34.262Z,79.47
2023-04-02T10:02:38.442Z,78.62
2023-04-02T10:07:48.978Z,79.19
2023-04-02T10:12:59.453Z,79.15
2023-04-02T10:18:13.007Z,79.32
2023-04-02T10:23:18.118Z,78.35
2023-04-02T10:28:43.636Z,78.65
2023-04-02T10:33:51.607Z,77.96
2023-04-02T10:39:12.439Z,78.54
2023-04-02T10:44:30.415Z,77.47
2023-04-02T10:49:50.450Z,76.80
2023-04-02T10:55:04.876Z,76.28
2023-04-02T11:35:06.673Z,76.33
2023-04-02T11:40:17.280Z,76.19
2023-04-02T11:46:08.744Z,75.88
2023-04-02T11:58:06.150Z,75.09
2023-04-02T12:10:23.040Z,76.16
2023-04-02T12:16:01.638Z,76.62
2023-04-02T12:21:18.772Z,75.98
2023-04-02T12:26:49.980Z,76.09
2023-04-02T12:32:04.495Z,76.20
2023-04-02T12:37:32.394Z,75.79
2023-04-02T12:42:46.865Z,76.26
2023-04-02T12:48:01.521Z,75.67
2023-04-02T12:53:29.745Z,75.60
2023-04-02T12:58:46.578Z,75.82
2023-04-02T13:04:10.947Z,75.85
2023-04-02T13:09:40.327Z,75.41
2023-04-02T13:14:46.861Z,75.72
2023-04-02T13:19:57.576Z,75.24
2023-04-02T13:25:03.219Z,75.53
2023-04-02T13:30:20.636Z,75.41
2023-04-02T13:35:29.677Z,75.14
2023-04-02T13:40:35.164Z,75.71
2023-04-02T13:45:45.828Z,75.21
2023-04-02T13:51:07.130Z,75.36
2023-04-02T13:56:31.305Z,75.63
2023-04-02T14:01:40.005Z,75.74
2023-04-02T14:07:13.078Z,75.62
2023-04-02T14:12:37.781Z,75.62
2023-04-02T14:18:07.757Z,75.51
2023-04-02T14:23:48.027Z,75.98
2023-04-02T14:29:13.668Z,75.98
2023-04-02T14:34:41.312Z,76.18
2023-04-02T14:40:04.671Z,76.89
2023-04-02T14:45:31.261Z,76.42
2023-04-02T14:50:40.858Z,76.17
2023-04-02T14:55:48.242Z,76.24
2023-04-02T15:01:39.547Z,75.94
2023-04-02T15:06:50.698Z,75.76
2023-04-02T15:11:58.872Z,75.60
2023-04-02T15:17:04.606Z,75.21
2023-04-02T15:22:24.509Z,75.21
2023-04-02T15:27:45.783Z,74.82
2023-04-02T15:32:57.188Z,74.98
2023-04-02T15:38:21.215Z,75.17
2023-04-02T15:43:32.721Z,75.18
2023-04-02T15:48:45.780Z,75.25
2023-04-02T15:54:00.831Z,74.73
2023-04-02T15:59:38.393Z,74.30
2023-04-02T16:05:05.318Z,73.88
2023-04-02T16:10:41.284Z,74.12
2023-04-02T16:15:57.664Z,74.08
2023-04-02T16:21:10.195Z,74.57
2023-04-02T16:26:22.957Z,75.00
2023-04-02T16:31:58.204Z,75.94
2023-04-02T16:37:23.279Z,76.69
2023-04-02T16:42:48.506Z,77.09
2023-04-02T16:48:15.191Z,77.96
2023-04-02T16:53:54.509Z,78.69
2023-04-02T16:59:21.562Z,78.78
2023-04-02T17:04:50.345Z,79.20
2023-04-02T17:10:37.971Z,79.84
2023-04-02T17:16:11.991Z,79.81
2023-04-02T17:21:33.496Z,80.10
2023-04-02T17:26:58.054Z,79.86
2023-04-02T17:32:38.061Z,79.89
2023-04-02T17:38:13.900Z,79.66
2023-04-02T17:43:36.733Z,79.75
2023-04-02T17:48:50.084Z,79.31
2023-04-02T17:54:04.042Z,79.24
2023-04-02T17:59:35.243Z,78.79
2023-04-02T18:05:27.992Z,78.16
2023-04-02T18:11:17.452Z,77.03
2023-04-02T18:17:15.938Z,76.49
2023-04-02T18:22:50.042Z,76.47
2023-04-02T18:28:35.572Z,75.97
2023-04-02T18:34:23.180Z,75.67
2023-04-02T18:39:59.336Z,74.89
2023-04-02T18:45:31.473Z,74.17
2023-04-02T18:50:52.940Z,74.11
2023-04-02T18:56:11.441Z,74.36
2023-04-02T19:01:24.861Z,74.70
2023-04-02T19:07:13.952Z,74.78
2023-04-02T19:12:22.707Z,74.90
2023-04-02T19:17:43.709Z,75.01
2023-04-02T19:23:16.932Z,75.01
2023-04-02T19:29:06.201Z,74.57
2023-04-02T19:35:09.498Z,74.58
2023-04-02T19:40:40.885Z,74.40
2023-04-02T19:45:49.703Z,73.65
2023-04-02T19:50:56.144Z,73.83
2023-04-02T19:56:03.314Z,73.86
2023-04-02T20:01:17.212Z,73.61
2023-04-02T20:06:23.520Z,73.60
2023-04-02T20:11:33.841Z,73.68
2023-04-02T20:16:44.506Z,73.31
2023-04-02T20:21:54.884Z,71.64
2023-04-02T20:27:04.997Z,70.84
2023-04-02T20:32:12.020Z,69.91
2023-04-02T20:37:17.477Z,69.42
2023-04-02T20:42:25.795Z,69.57
2023-04-02T20:47:30.572Z,69.55
2023-04-02T20:52:36.128Z,68.64
2023-04-02T20:57:40.498Z,67.97
2023-04-02T21:02:46.297Z,67.15
2023-04-02T21:07:50.650Z,67.12
2023-04-02T21:12:56.119Z,67.49
2023-04-02T21:18:00.271Z,67.48
2023-04-02T21:23:05.136Z,67.58
2023-04-02T21:28:09.982Z,67.99
2023-04-02T21:33:18.719Z,68.34
2023-04-02T21:38:27.432Z,68.79
2023-04-02T21:43:31.357Z,68.94
2023-04-02T21:48:38.968Z,69.25
2023-04-02T21:53:51.155Z,69.38
2023-04-02T21:59:02.218Z,69.29
2023-04-02T22:04:09.961Z,69.36
2023-04-02T22:09:16.565Z,69.50
2023-04-02T22:14:20.607Z,69.55
2023-04-02T22:19:35.742Z,69.39
2023-04-02T22:24:51.543Z,69.52
2023-04-02T22:29:55.890Z,69.38
2023-04-02T22:35:02.185Z,69.62
2023-04-02T22:40:11.190Z,69.38
2023-04-02T22:45:18.896Z,69.12
2023-04-02T22:50:23.258Z,69.45
2023-04-02T22:55:27.467Z,69.86
2023-04-02T23:00:31.274Z,70.32
2023-04-02T23:05:35.197Z,70.58
2023-04-02T23:10:38.945Z,71.15
2023-04-02T23:15:44.954Z,71.45
2023-04-02T23:20:48.756Z,71.82
2023-04-02T23:26:12.610Z,72.22
2023-04-02T23:31:19.425Z,72.62
2023-04-02T23:36:25.587Z,72.98
2023-04-02T23:41:30.257Z,73.51
2023-04-02T23:46:34.517Z,74.04
2023-04-02T23:51:38.344Z,74.52
2023-04-02T23:56:42.512Z,74.56
